Time;durP1;ratioP1;P1;durP2;ratioP2;P2;SDS_P1;SDS_P2;PMS_P1;PMS_P2;Temp;Humidity;BMP_temperature;BMP_pressure;BME280_temperature;BME280_humidity;BME280_pressure;Samples;Min_cycle;Max_cycle;Signal;HPM_P1;HPM_P2
2024/04/09 00:00:44;;;;;;;18.53;4.80;;;17.70;99.90;;;;;;5566461;25;20457;-53
2024/04/09 00:03:13;;;;;;;10.63;4.43;;;17.70;99.90;;;;;;5567819;25;20925;-50
2024/04/09 00:05:40;;;;;;;14.90;4.67;;;17.80;99.90;;;;;;5568740;25;20517;-50
2024/04/09 00:08:10;;;;;;;11.37;4.67;;;17.80;82.90;;;;;;5568991;25;20531;-54
2024/04/09 00:10:40;;;;;;;13.10;5.57;;;17.90;99.90;;;;;;5568037;25;20487;-52
2024/04/09 00:13:09;;;;;;;11.37;4.60;;;17.90;1.00;;;;;;5569193;25;20461;-52
2024/04/09 00:15:36;;;;;;;14.80;5.43;;;18.00;99.90;;;;;;5569213;25;20748;-52
2024/04/09 00:18:12;;;;;;;11.43;4.70;;;18.00;99.90;;;;;;5568952;25;20566;-52
2024/04/09 00:20:38;;;;;;;18.77;5.53;;;18.10;1.20;;;;;;5569023;25;20461;-48
2024/04/09 00:23:09;;;;;;;16.63;5.03;;;18.10;99.90;;;;;;5569008;25;20527;-52
2024/04/09 00:25:39;;;;;;;12.43;5.47;;;18.20;99.90;;;;;;5568481;25;20457;-54
2024/04/09 00:28:09;;;;;;;16.03;7.37;;;18.30;99.90;;;;;;5568784;25;20501;-53
2024/04/09 00:30:35;;;;;;;13.33;5.00;;;18.20;72.20;;;;;;5568857;25;20810;-51
2024/04/09 00:33:04;;;;;;;10.73;4.97;;;18.20;1.00;;;;;;5568513;25;20465;-52
2024/04/09 00:35:31;;;;;;;15.50;5.50;;;18.40;28.60;;;;;;5568736;25;20445;-62
2024/04/09 00:38:06;;;;;;;13.60;4.77;;;18.60;1.00;;;;;;5568468;25;20520;-64
2024/04/09 00:40:32;;;;;;;19.33;5.50;;;18.70;1.00;;;;;;5568279;25;20931;-62
2024/04/09 00:43:04;;;;;;;20.00;5.40;;;18.80;1.00;;;;;;5568665;25;20516;-63
2024/04/09 00:45:32;;;;;;;15.60;5.47;;;18.80;1.00;;;;;;5568140;25;20879;-62
2024/04/09 00:48:02;;;;;;;20.27;5.60;;;18.90;41.10;;;;;;5568592;25;20457;-63
2024/04/09 00:50:29;;;;;;;14.33;4.73;;;18.90;1.00;;;;;;5568857;25;20457;-63
2024/04/09 00:53:00;;;;;;;14.17;5.67;;;19.10;44.20;;;;;;5568499;25;20504;-63
2024/04/09 00:55:26;;;;;;;22.37;5.63;;;19.20;1.00;;;;;;5568468;25;20484;-63
2024/04/09 00:57:56;;;;;;;13.17;4.93;;;19.30;1.00;;;;;;5568306;25;20461;-64
2024/04/09 01:00:25;;;;;;;12.03;4.90;;;19.40;1.00;;;;;;5568218;25;20496;-64
2024/04/09 01:02:54;;;;;;;19.73;5.53;;;19.40;1.00;;;;;;5568304;25;20503;-65
2024/04/09 01:05:20;;;;;;;13.17;5.00;;;19.50;1.00;;;;;;5567731;25;20457;-64
2024/04/09 01:07:49;;;;;;;14.97;4.97;;;19.40;1.00;;;;;;5568378;25;20464;-65
2024/04/09 01:10:16;;;;;;;21.10;6.60;;;19.40;1.00;;;;;;5568152;25;20461;-64
2024/04/09 01:12:44;;;;;;;15.03;5.67;;;19.30;1.00;;;;;;5568260;25;20457;-63
2024/04/09 01:15:11;;;;;;;21.47;5.83;;;19.20;1.00;;;;;;5568184;25;20902;-64
2024/04/09 01:17:42;;;;;;;14.57;5.60;;;19.10;1.00;;;;;;5568321;25;20446;-64
2024/04/09 01:20:12;;;;;;;14.73;5.13;;;18.90;1.00;;;;;;5567917;25;20457;-63
2024/04/09 01:22:45;;;;;;;15.80;5.20;;;18.70;1.00;;;;;;5568209;25;20510;-64
2024/04/09 01:25:11;;;;;;;17.10;5.40;;;18.60;1.00;;;;;;5568253;25;20493;-63
2024/04/09 01:27:40;;;;;;;15.13;5.97;;;18.50;3.70;;;;;;5568150;25;20391;-63
2024/04/09 01:30:08;;;;;;;17.87;6.37;;;18.40;33.00;;;;;;5567710;25;20453;-64
2024/04/09 01:32:38;;;;;;;23.67;5.70;;;18.20;99.90;;;;;;5567572;25;20514;-63
2024/04/09 01:35:06;;;;;;;18.03;5.60;;;18.10;99.90;;;;;;5567884;25;20577;-63
2024/04/09 01:37:36;;;;;;;16.77;6.00;;;18.00;99.90;;;;;;5568061;25;20458;-64
2024/04/09 01:40:07;;;;;;;17.37;6.27;;;17.80;1.00;;;;;;5567628;25;20446;-64
2024/04/09 01:42:36;;;;;;;18.10;5.50;;;17.70;1.00;;;;;;5567706;25;20506;-64
2024/04/09 01:45:03;;;;;;;17.50;6.37;;;17.60;1.00;;;;;;5567780;25;20810;-64
2024/04/09 01:47:32;;;;;;;11.37;5.20;;;17.60;1.00;;;;;;5567340;25;20498;-63
2024/04/09 01:49:58;;;;;;;12.27;5.53;;;17.50;31.00;;;;;;5567536;25;20450;-64
2024/04/09 01:52:28;;;;;;;17.60;6.10;;;17.40;99.90;;;;;;5567502;25;20457;-64
2024/04/09 01:54:54;;;;;;;17.40;5.53;;;17.30;99.90;;;;;;5567424;25;20446;-64
2024/04/09 01:57:26;;;;;;;11.90;5.30;;;17.20;99.90;;;;;;5567730;25;20831;-63
2024/04/09 01:59:52;;;;;;;21.50;6.43;;;17.20;99.90;;;;;;5567248;25;20975;-64
2024/04/09 02:02:21;;;;;;;13.60;5.70;;;17.00;99.90;;;;;;5567564;25;20504;-64
2024/04/09 02:04:47;;;;;;;24.03;5.80;;;16.90;99.90;;;;;;5567405;25;20453;-64
2024/04/09 02:07:16;;;;;;;14.37;5.53;;;16.80;99.90;;;;;;5567551;25;20930;-63
2024/04/09 02:09:42;;;;;;;16.17;5.60;;;16.70;1.00;;;;;;5567725;25;20445;-63
2024/04/09 02:12:12;;;;;;;20.10;6.00;;;16.80;1.00;;;;;;5567328;25;20488;-62
2024/04/09 02:14:41;;;;;;;20.37;5.90;;;16.70;1.00;;;;;;5567057;25;20513;-64
2024/04/09 02:17:11;;;;;;;15.43;5.90;;;16.60;1.00;;;;;;5565795;25;20386;-63
2024/04/09 02:19:37;;;;;;;19.07;6.40;;;16.50;1.00;;;;;;5566987;25;20909;-64
2024/04/09 02:22:07;;;;;;;18.60;6.03;;;16.50;1.00;;;;;;5567022;25;20445;-63
2024/04/09 02:24:34;;;;;;;19.33;5.67;;;16.50;1.00;;;;;;5567490;25;20446;-64
2024/04/09 02:27:03;;;;;;;16.37;6.60;;;16.40;1.00;;;;;;5567094;25;20532;-64
2024/04/09 02:29:30;;;;;;;12.20;5.10;;;16.30;1.00;;;;;;5567278;25;20962;-63
2024/04/09 02:32:02;;;;;;;15.93;5.80;;;16.20;88.60;;;;;;5566723;25;20394;-64
2024/04/09 02:34:28;;;;;;;18.73;6.00;;;16.30;37.80;;;;;;5566618;25;20751;-63
2024/04/09 02:36:57;;;;;;;13.33;5.13;;;16.20;64.50;;;;;;5566931;25;20497;-63
2024/04/09 02:39:23;;;;;;;19.17;5.90;;;16.20;68.50;;;;;;5567555;25;20506;-63
2024/04/09 02:41:52;;;;;;;21.80;5.63;;;16.20;94.00;;;;;;5566661;25;20504;-63
2024/04/09 02:44:18;;;;;;;13.70;6.47;;;16.20;99.90;;;;;;5566668;25;20468;-63
2024/04/09 02:46:47;;;;;;;20.37;5.30;;;16.20;99.90;;;;;;5566912;25;20963;-63
2024/04/09 02:49:15;;;;;;;18.50;5.50;;;16.10;99.90;;;;;;5566978;25;20457;-63
2024/04/09 02:51:44;;;;;;;13.27;5.90;;;16.10;99.90;;;;;;5566617;25;20449;-63
2024/04/09 02:54:10;;;;;;;14.10;4.93;;;16.10;99.90;;;;;;5566494;25;20453;-63
2024/04/09 02:56:39;;;;;;;11.37;5.53;;;16.10;99.90;;;;;;5564895;25;20860;-63
2024/04/09 02:59:06;;;;;;;14.17;6.17;;;16.10;99.90;;;;;;5564362;25;20445;-63
2024/04/09 03:01:35;;;;;;;19.10;5.33;;;16.00;99.90;;;;;;5564509;25;20457;-63
2024/04/09 03:04:01;;;;;;;17.77;6.10;;;16.00;99.90;;;;;;5564022;25;20453;-62
2024/04/09 03:06:33;;;;;;;12.53;5.40;;;15.90;99.90;;;;;;5564061;25;20457;-62
2024/04/09 03:08:59;;;;;;;13.27;5.20;;;15.90;99.90;;;;;;5564190;25;20457;-62
2024/04/09 03:11:28;;;;;;;17.93;5.90;;;15.90;99.90;;;;;;5563504;25;20453;-63
2024/04/09 03:13:54;;;;;;;15.40;5.77;;;15.90;99.90;;;;;;5564578;25;20501;-63
2024/04/09 03:16:24;;;;;;;14.77;5.60;;;15.90;99.90;;;;;;5564338;25;20398;-63
2024/04/09 03:18:53;;;;;;;20.23;6.13;;;15.90;1.00;;;;;;5563050;25;20785;-63
2024/04/09 03:21:22;;;;;;;20.47;6.30;;;15.80;1.00;;;;;;5563364;25;20461;-63
2024/04/09 03:23:51;;;;;;;17.17;5.43;;;15.80;1.00;;;;;;5560375;25;20473;-62
2024/04/09 03:26:20;;;;;;;14.63;5.40;;;15.80;1.00;;;;;;5560316;25;21031;-63
2024/04/09 03:28:46;;;;;;;13.50;5.03;;;15.80;1.00;;;;;;5559925;25;20934;-60
2024/04/09 03:31:15;;;;;;;13.50;6.17;;;15.70;1.00;;;;;;5560140;25;20501;-62
2024/04/09 03:33:44;;;;;;;11.43;4.63;;;15.60;99.90;;;;;;5562208;25;20406;-61
2024/04/09 03:36:10;;;;;;;13.57;4.50;;;15.60;1.00;;;;;;5562665;25;20868;-62
2024/04/09 03:38:39;;;;;;;13.90;5.40;;;15.70;1.00;;;;;;5562754;25;20555;-62
2024/04/09 03:41:11;;;;;;;15.70;4.60;;;15.70;1.00;;;;;;5563053;25;20453;-61
2024/04/09 03:43:40;;;;;;;13.00;3.90;;;15.70;1.00;;;;;;5565109;25;20561;-63
2024/04/09 03:46:07;;;;;;;8.30;4.23;;;15.70;1.00;;;;;;5565840;25;20449;-63
2024/04/09 03:48:36;;;;;;;12.63;4.63;;;15.70;99.90;;;;;;5565708;25;20498;-63
2024/04/09 03:51:03;;;;;;;11.10;5.00;;;15.70;99.90;;;;;;5565510;25;20732;-63
2024/04/09 03:53:32;;;;;;;9.57;4.20;;;15.70;99.90;;;;;;5565645;25;20517;-63
2024/04/09 03:55:59;;;;;;;8.07;4.40;;;15.70;1.00;;;;;;5565301;25;20453;-65
2024/04/09 03:58:32;;;;;;;13.93;5.03;;;15.70;1.00;;;;;;5565461;25;20444;-63
2024/04/09 04:00:59;;;;;;;12.67;5.63;;;15.60;99.90;;;;;;5565560;25;20439;-64
2024/04/09 04:03:29;;;;;;;9.20;4.57;;;15.60;1.00;;;;;;5564166;25;20461;-63
2024/04/09 04:05:56;;;;;;;11.20;4.23;;;15.60;1.00;;;;;;5562410;25;20595;-64
2024/04/09 04:08:26;;;;;;;10.50;4.20;;;15.50;1.00;;;;;;5562261;25;20457;-64
2024/04/09 04:10:53;;;;;;;11.63;5.03;;;15.50;5.00;;;;;;5562344;25;20893;-64
2024/04/09 04:13:22;;;;;;;12.40;4.90;;;15.50;18.70;;;;;;5562596;25;21013;-56
2024/04/09 04:15:59;;;;;;;10.90;4.93;;;15.30;9.60;;;;;;5561835;25;21100;-50
2024/04/09 04:18:28;;;;;;;8.30;4.73;;;15.20;54.60;;;;;;5562769;25;20457;-55
2024/04/09 04:20:55;;;;;;;10.80;5.20;;;15.20;1.00;;;;;;5565032;25;20434;-53
2024/04/09 04:23:24;;;;;;;14.10;5.03;;;15.20;1.00;;;;;;5565327;25;20538;-54
2024/04/09 04:25:54;;;;;;;11.07;4.60;;;15.30;1.00;;;;;;5564720;25;20442;-55
2024/04/09 04:28:23;;;;;;;18.57;4.93;;;15.20;1.00;;;;;;5564765;25;20498;-54
2024/04/09 04:30:49;;;;;;;10.17;4.73;;;15.20;46.60;;;;;;5564992;25;20505;-54
2024/04/09 04:33:21;;;;;;;12.40;4.90;;;15.20;99.90;;;;;;5565075;25;20910;-55
2024/04/09 04:35:47;;;;;;;12.03;6.07;;;15.20;99.90;;;;;;5564963;25;20449;-66
2024/04/09 04:38:16;;;;;;;11.83;5.30;;;15.10;99.90;;;;;;5564676;25;20454;-66
2024/04/09 04:40:45;;;;;;;14.67;5.40;;;15.10;99.90;;;;;;5565240;25;20449;-65
2024/04/09 04:43:13;;;;;;;13.50;4.40;;;15.00;99.90;;;;;;5568897;25;20525;-66
2024/04/09 04:45:40;;;;;;;7.60;4.00;;;15.00;1.00;;;;;;5568576;25;20449;-66
2024/04/09 04:48:09;;;;;;;6.80;3.83;;;14.90;1.00;;;;;;5568364;25;20457;-66
2024/04/09 04:50:38;;;;;;;10.30;4.27;;;14.90;1.00;;;;;;5568125;25;20800;-67
2024/04/09 04:53:08;;;;;;;7.20;4.53;;;14.80;1.00;;;;;;5568184;25;20505;-67
2024/04/09 04:55:35;;;;;;;8.10;3.90;;;14.80;1.00;;;;;;5568168;25;20477;-67
2024/04/09 04:58:05;;;;;;;9.13;3.90;;;14.70;1.00;;;;;;5568024;25;20449;-69
2024/04/09 05:00:31;;;;;;;13.30;4.97;;;14.60;1.00;;;;;;5568770;25;20461;-67
2024/04/09 05:03:01;;;;;;;9.60;3.53;;;14.60;1.00;;;;;;5568187;25;20445;-66
2024/04/09 05:05:28;;;;;;;7.27;3.97;;;14.50;99.90;;;;;;5568008;25;20748;-65
2024/04/09 05:08:00;;;;;;;11.23;4.73;;;14.40;99.90;;;;;;5567730;25;20812;-65
2024/04/09 05:10:27;;;;;;;8.43;4.37;;;14.30;99.90;;;;;;5567737;25;20492;-64
2024/04/09 05:12:57;;;;;;;8.33;3.93;;;14.40;99.90;;;;;;5568020;25;20461;-64
2024/04/09 05:15:24;;;;;;;10.23;4.90;;;14.40;1.00;;;;;;5566660;25;20425;-64
2024/04/09 05:17:53;;;;;;;10.70;4.47;;;14.40;1.00;;;;;;5565068;25;20800;-63
2024/04/09 05:20:25;;;;;;;12.10;4.63;;;14.50;99.90;;;;;;5564749;25;20601;-55
2024/04/09 05:22:56;;;;;;;7.43;4.50;;;14.50;99.90;;;;;;5565416;25;20734;-57
2024/04/09 05:25:27;;;;;;;11.00;4.87;;;14.50;99.90;;;;;;5565563;25;20453;-56
2024/04/09 05:27:56;;;;;;;10.97;4.37;;;14.40;99.90;;;;;;5565579;25;20569;-55
2024/04/09 05:30:22;;;;;;;14.70;5.03;;;14.50;99.90;;;;;;5566034;25;20501;-52
2024/04/09 05:32:52;;;;;;;12.87;5.40;;;14.50;99.90;;;;;;5567286;25;20473;-60
2024/04/09 05:35:19;;;;;;;8.37;4.90;;;14.40;99.90;;;;;;5567751;25;20898;-62
2024/04/09 05:37:48;;;;;;;8.70;4.73;;;14.40;99.90;;;;;;5567831;25;20528;-62
2024/04/09 05:40:15;;;;;;;10.90;4.90;;;14.30;99.90;;;;;;5567397;25;20457;-62
2024/04/09 05:42:46;;;;;;;10.57;4.77;;;14.30;99.90;;;;;;5567736;25;20513;-61
2024/04/09 05:45:15;;;;;;;7.17;4.50;;;14.10;99.90;;;;;;5567737;25;20493;-61
2024/04/09 05:47:44;;;;;;;14.43;4.60;;;14.20;1.00;;;;;;5567558;25;20391;-60
2024/04/09 05:50:10;;;;;;;10.40;4.70;;;14.20;1.00;;;;;;5567475;25;20449;-60
2024/04/09 05:52:40;;;;;;;8.13;3.97;;;14.10;1.00;;;;;;5567218;25;20940;-62
2024/04/09 05:55:07;;;;;;;10.90;4.40;;;14.10;1.00;;;;;;5567624;25;20894;-62
2024/04/09 05:57:39;;;;;;;6.53;3.53;;;14.10;1.00;;;;;;5567238;25;20453;-59
2024/04/09 06:00:11;;;;;;;7.03;4.00;;;14.30;1.00;;;;;;5567218;25;20502;-61
2024/04/09 06:02:40;;;;;;;8.10;3.90;;;14.30;1.00;;;;;;5567553;25;20429;-61
2024/04/09 06:05:06;;;;;;;9.03;4.33;;;14.30;1.00;;;;;;5566730;25;20742;-62
2024/04/09 06:07:35;;;;;;;6.00;3.70;;;14.20;1.00;;;;;;5566977;25;20462;-63
2024/04/09 06:10:03;;;;;;;7.17;3.20;;;14.30;1.00;;;;;;5567175;25;20757;-62
2024/04/09 06:12:32;;;;;;;5.50;3.10;;;14.20;1.00;;;;;;5567181;25;20528;-62
2024/04/09 06:14:59;;;;;;;5.50;3.43;;;14.10;1.00;;;;;;5567435;25;20398;-61
2024/04/09 06:17:31;;;;;;;3.97;2.77;;;14.00;1.00;;;;;;5564895;25;20811;-60
2024/04/09 06:19:58;;;;;;;6.23;2.67;;;14.00;1.00;;;;;;5563992;25;20525;-59
2024/04/09 06:22:27;;;;;;;4.00;2.80;;;13.90;99.90;;;;;;5564172;25;20450;-61
2024/04/09 06:24:54;;;;;;;5.17;3.23;;;14.00;1.00;;;;;;5564098;25;21168;-62
2024/04/09 06:27:23;;;;;;;4.07;2.37;;;13.90;1.00;;;;;;5564478;25;20454;-62
2024/04/09 06:29:49;;;;;;;6.13;2.77;;;13.80;1.00;;;;;;5565890;25;20457;-62
2024/04/09 06:32:18;;;;;;;6.80;2.50;;;13.70;1.00;;;;;;5566666;25;20910;-61
2024/04/09 06:34:47;;;;;;;3.30;2.10;;;13.70;1.00;;;;;;5566954;25;20753;-63
2024/04/09 06:37:16;;;;;;;3.07;2.30;;;13.70;1.00;;;;;;5567072;25;20457;-63
2024/04/09 06:39:43;;;;;;;6.90;3.00;;;13.70;1.00;;;;;;5566997;25;20453;-61
2024/04/09 06:42:11;;;;;;;6.53;2.30;;;13.70;1.00;;;;;;5566726;25;20501;-61
2024/04/09 06:44:38;;;;;;;3.80;2.43;;;13.70;1.00;;;;;;5566656;25;20449;-62
2024/04/09 06:47:18;;;;;;;4.53;2.60;;;13.80;1.00;;;;;;5554693;25;20503;-60
2024/04/09 06:49:47;;;;;;;4.20;2.47;;;13.70;1.00;;;;;;5560781;25;20523;-62
2024/04/09 06:52:17;;;;;;;4.17;2.10;;;13.50;99.90;;;;;;5566140;25;20517;-60
2024/04/09 06:54:44;;;;;;;5.87;2.70;;;13.50;1.00;;;;;;5566388;25;20804;-61
2024/04/09 06:57:12;;;;;;;5.60;2.30;;;13.40;1.00;;;;;;5565775;25;20449;-61
2024/04/09 06:59:39;;;;;;;4.10;2.40;;;13.30;1.00;;;;;;5565586;25;20823;-60
2024/04/09 07:02:09;;;;;;;3.97;2.40;;;13.20;1.00;;;;;;5566042;25;20465;-62
2024/04/09 07:04:35;;;;;;;3.23;2.60;;;13.10;1.00;;;;;;5565292;25;20533;-60
2024/04/09 07:07:08;;;;;;;3.40;2.20;;;13.00;1.00;;;;;;5565465;25;20569;-61
2024/04/09 07:09:34;;;;;;;5.00;3.30;;;13.00;1.00;;;;;;5565832;25;20942;-61
2024/04/09 07:12:03;;;;;;;5.90;2.83;;;13.00;1.00;;;;;;5565458;25;20469;-61
2024/04/09 07:14:29;;;;;;;7.20;3.27;;;12.90;1.00;;;;;;5565898;25;20395;-61
2024/04/09 07:16:58;;;;;;;3.70;2.43;;;12.80;99.90;;;;;;5563776;25;20418;-63
2024/04/09 07:19:24;;;;;;;4.83;2.93;;;12.70;99.90;;;;;;5564627;25;20449;-63
2024/04/09 07:21:54;;;;;;;4.93;3.40;;;12.70;1.00;;;;;;5563484;25;20462;-61
2024/04/09 07:24:23;;;;;;;4.20;3.20;;;12.60;99.90;;;;;;5565419;25;20461;-62
2024/04/09 07:26:52;;;;;;;4.67;2.93;;;12.50;1.00;;;;;;5565683;25;20760;-61
2024/04/09 07:29:18;;;;;;;5.33;3.13;;;12.50;1.00;;;;;;5565824;25;20575;-64
2024/04/09 07:31:47;;;;;;;4.23;3.37;;;12.40;1.00;;;;;;5566186;25;20830;-66
2024/04/09 07:34:14;;;;;;;5.37;3.63;;;12.40;1.00;;;;;;5565734;25;20990;-66
2024/04/09 07:36:43;;;;;;;3.30;2.83;;;12.30;1.00;;;;;;5563945;25;20919;-65
2024/04/09 07:39:14;;;;;;;4.73;2.87;;;12.20;99.90;;;;;;5562963;25;20454;-65
2024/04/09 07:41:47;;;;;;;4.40;3.80;;;12.20;99.90;;;;;;5562526;25;20461;-66
2024/04/09 07:44:13;;;;;;;6.83;4.07;;;12.20;99.90;;;;;;5563044;25;20387;-66
2024/04/09 07:46:48;;;;;;;6.10;3.50;;;12.10;99.90;;;;;;5562545;25;20457;-66
2024/04/09 07:49:14;;;;;;;4.47;4.00;;;12.00;99.90;;;;;;5561062;25;20386;-62
2024/04/09 07:51:44;;;;;;;7.07;3.97;;;11.90;99.90;;;;;;5561880;25;20449;-63
2024/04/09 07:54:10;;;;;;;5.50;3.67;;;11.90;99.90;;;;;;5564639;25;20450;-65
2024/04/09 07:56:39;;;;;;;6.50;4.50;;;11.70;99.90;;;;;;5564982;25;20458;-63
2024/04/09 07:59:08;;;;;;;7.07;4.30;;;11.80;99.90;;;;;;5565567;25;20505;-63
2024/04/09 08:01:37;;;;;;;5.20;4.37;;;11.80;99.90;;;;;;5565543;25;20508;-63
2024/04/09 08:04:04;;;;;;;5.77;4.30;;;11.80;99.90;;;;;;5564409;25;20391;-64
2024/04/09 08:06:33;;;;;;;6.50;4.30;;;11.90;99.90;;;;;;5563348;25;20492;-62
2024/04/09 08:09:00;;;;;;;7.70;4.60;;;11.90;99.90;;;;;;5563544;25;20765;-62
2024/04/09 08:11:29;;;;;;;9.10;5.90;;;11.80;99.90;;;;;;5564939;25;20810;-63
2024/04/09 08:13:56;;;;;;;7.27;6.13;;;11.80;99.90;;;;;;5565474;25;20394;-64
2024/04/09 08:16:27;;;;;;;6.93;5.40;;;11.80;99.90;;;;;;5566942;25;20504;-62
2024/04/09 08:18:54;;;;;;;10.60;6.67;;;11.90;99.90;;;;;;5568546;25;20508;-62
2024/04/09 08:21:23;;;;;;;9.07;6.90;;;12.00;99.90;;;;;;5566393;25;20450;-62
2024/04/09 08:23:49;;;;;;;7.57;6.67;;;12.00;99.90;;;;;;5565595;25;20446;-66
2024/04/09 08:26:18;;;;;;;7.03;5.70;;;12.00;99.90;;;;;;5566211;25;20725;-62
2024/04/09 08:28:47;;;;;;;7.70;6.90;;;11.90;99.90;;;;;;5567882;25;20457;-62
2024/04/09 08:31:14;;;;;;;12.67;7.63;;;12.00;99.90;;;;;;5564851;25;20457;-62
2024/04/09 08:33:47;;;;;;;16.30;8.83;;;11.90;99.90;;;;;;5566258;25;20511;-62
2024/04/09 08:36:16;;;;;;;9.70;5.73;;;11.90;99.90;;;;;;5566167;25;20453;-64
2024/04/09 08:38:42;;;;;;;7.53;4.53;;;11.90;99.90;;;;;;5565214;25;20831;-61
2024/04/09 08:41:11;;;;;;;7.37;3.67;;;11.80;99.90;;;;;;5564985;25;20470;-62
2024/04/09 08:43:39;;;;;;;5.73;3.10;;;11.80;99.90;;;;;;5564574;25;20367;-63
2024/04/09 08:46:10;;;;;;;9.23;3.47;;;11.70;99.90;;;;;;5564659;25;20382;-62
2024/04/09 08:48:39;;;;;;;5.10;2.83;;;11.80;1.00;;;;;;5564428;25;20930;-62
2024/04/09 08:51:12;;;;;;;5.53;3.67;;;11.70;99.90;;;;;;5564682;25;20894;-62
2024/04/09 08:53:38;;;;;;;8.03;3.90;;;11.70;1.00;;;;;;5565564;25;20532;-61
2024/04/09 08:56:08;;;;;;;6.60;2.90;;;11.60;99.90;;;;;;5566386;25;20532;-60
2024/04/09 08:58:35;;;;;;;6.37;2.87;;;11.60;99.90;;;;;;5566276;25;20390;-61
2024/04/09 09:01:06;;;;;;;5.23;3.30;;;11.70;99.90;;;;;;5566162;25;20453;-62
2024/04/09 09:03:32;;;;;;;6.27;3.23;;;11.70;1.00;;;;;;5547901;25;20515;-61
2024/04/09 09:06:04;;;;;;;4.37;2.63;;;11.70;1.00;;;;;;5528628;25;20879;-62
2024/04/09 09:08:41;;;;;;;5.67;3.33;;;11.70;99.90;;;;;;5530070;25;20567;-61
2024/04/09 09:11:11;;;;;;;5.27;3.23;;;11.80;1.00;;;;;;5530666;26;20600;-61
2024/04/09 09:13:37;;;;;;;7.70;2.47;;;11.90;1.00;;;;;;5530189;25;20516;-62
2024/04/09 09:16:11;;;;;;;5.77;2.00;;;12.10;1.00;;;;;;5530843;25;20523;-61
2024/04/09 09:18:38;;;;;;;7.00;2.60;;;12.20;99.90;;;;;;5530850;26;20450;-61
2024/04/09 09:21:07;;;;;;;3.83;2.10;;;12.20;99.90;;;;;;5530635;25;20530;-62
2024/04/09 09:23:34;;;;;;;4.43;2.57;;;12.10;1.00;;;;;;5530518;26;20455;-61
2024/04/09 09:26:07;;;;;;;4.07;2.10;;;12.00;1.00;;;;;;5530538;25;20458;-63
2024/04/09 09:28:33;;;;;;;5.20;2.10;;;11.80;1.00;;;;;;5530279;26;20444;-63
2024/04/09 09:31:03;;;;;;;4.13;1.93;;;11.80;1.00;;;;;;5530353;26;20395;-61
2024/04/09 09:33:30;;;;;;;3.83;1.80;;;11.80;1.00;;;;;;5530090;25;20591;-61
2024/04/09 09:36:00;;;;;;;3.40;2.40;;;11.70;1.00;;;;;;5530421;26;20451;-62
2024/04/09 09:38:27;;;;;;;5.80;2.27;;;11.70;1.00;;;;;;5530491;26;20446;-61
2024/04/09 09:40:57;;;;;;;4.47;1.90;;;11.60;1.00;;;;;;5530173;25;20388;-61
2024/04/09 09:43:27;;;;;;;6.20;1.97;;;11.50;99.90;;;;;;5530186;26;20883;-61
2024/04/09 09:45:57;;;;;;;8.07;2.20;;;11.40;1.00;;;;;;5529242;26;20450;-62
2024/04/09 09:48:24;;;;;;;4.63;2.00;;;11.30;1.00;;;;;;5530559;26;20827;-62
2024/04/09 09:50:53;;;;;;;5.93;2.37;;;11.20;1.00;;;;;;5530029;25;21019;-61
2024/04/09 09:53:20;;;;;;;4.83;2.30;;;11.20;1.00;;;;;;5529760;26;20392;-62
2024/04/09 09:55:53;;;;;;;3.77;2.13;;;11.20;99.90;;;;;;5530238;26;20743;-62
2024/04/09 09:58:23;;;;;;;7.00;2.27;;;11.10;1.00;;;;;;5530342;26;20451;-64
2024/04/09 10:00:55;;;;;;;7.27;1.90;;;11.00;99.90;;;;;;5529922;25;20745;-63
2024/04/09 10:03:25;;;;;;;2.93;2.13;;;11.10;99.90;;;;;;5530022;26;20566;-64
2024/04/09 10:05:54;;;;;;;3.93;2.03;;;11.30;99.90;;;;;;5529833;25;20514;-62
2024/04/09 10:08:22;;;;;;;4.33;2.40;;;11.40;1.00;;;;;;5536632;25;20525;-62
2024/04/09 10:10:53;;;;;;;5.50;2.20;;;11.60;97.10;;;;;;5567181;25;20465;-63
2024/04/09 10:13:23;;;;;;;2.97;1.67;;;11.90;99.90;;;;;;5567297;25;20496;-62
2024/04/09 10:15:59;;;;;;;4.57;2.00;;;12.10;99.90;;;;;;5567062;25;20457;-62
2024/04/09 10:18:31;;;;;;;8.33;3.33;;;12.20;99.90;;;;;;5567381;25;20484;-62
2024/04/09 10:21:00;;;;;;;3.80;2.33;;;12.70;1.00;;;;;;5567084;25;20438;-62
2024/04/09 10:23:27;;;;;;;6.90;2.40;;;13.50;1.00;;;;;;5567195;25;20552;-61
2024/04/09 10:25:59;;;;;;;5.83;2.40;;;14.10;99.90;;;;;;5567144;25;20469;-62
2024/04/09 10:28:27;;;;;;;3.83;2.07;;;14.00;99.90;;;;;;5566207;25;20513;-61
2024/04/09 10:31:04;;;;;;;4.00;2.07;;;13.90;1.00;;;;;;5560391;25;20561;-60
2024/04/09 10:33:33;;;;;;;4.97;1.87;;;14.00;99.90;;;;;;5561184;25;20964;-60
2024/04/09 10:36:06;;;;;;;3.63;2.40;;;14.40;1.00;;;;;;5562374;25;20545;-60
2024/04/09 10:38:33;;;;;;;3.37;1.80;;;14.50;99.90;;;;;;5552815;25;20744;-59
2024/04/09 10:41:03;;;;;;;3.13;1.90;;;14.40;99.90;;;;;;5524965;25;20455;-60
2024/04/09 10:43:30;;;;;;;4.60;2.10;;;14.50;99.90;;;;;;5527799;25;20458;-60
2024/04/09 10:46:02;;;;;;;5.73;2.30;;;14.50;1.00;;;;;;5528215;25;20503;-60
2024/04/09 10:48:29;;;;;;;6.70;2.50;;;14.50;1.00;;;;;;5527414;25;20503;-59
2024/04/09 10:50:58;;;;;;;4.97;2.20;;;14.40;99.90;;;;;;5528271;26;20508;-60
2024/04/09 10:53:25;;;;;;;4.17;2.47;;;14.20;99.90;;;;;;5528944;26;20458;-60
2024/04/09 10:56:03;;;;;;;3.70;2.30;;;14.10;1.00;;;;;;5529620;26;20396;-59
2024/04/09 10:58:30;;;;;;;6.20;2.50;;;14.00;1.00;;;;;;5529637;26;20447;-59
2024/04/09 11:01:02;;;;;;;2.97;1.80;;;13.80;1.00;;;;;;5529175;25;20511;-60
2024/04/09 11:03:30;;;;;;;3.90;2.50;;;13.70;1.00;;;;;;5529509;26;20454;-59
2024/04/09 11:06:00;;;;;;;4.00;2.53;;;13.80;1.00;;;;;;5529483;25;20455;-59
2024/04/09 11:08:28;;;;;;;6.53;3.17;;;13.60;1.00;;;;;;5529391;26;20813;-59
2024/04/09 11:10:59;;;;;;;7.10;2.60;;;13.70;1.00;;;;;;5528949;26;20451;-58
2024/04/09 11:13:26;;;;;;;5.73;2.70;;;13.70;1.00;;;;;;5529556;26;20495;-59
2024/04/09 11:15:57;;;;;;;4.37;2.43;;;13.70;1.00;;;;;;5532916;25;20471;-59
2024/04/09 11:18:27;;;;;;;4.73;2.47;;;13.70;1.00;;;;;;5564687;25;20722;-58
2024/04/09 11:20:58;;;;;;;3.93;2.17;;;13.90;1.00;;;;;;5564325;25;20461;-59
2024/04/09 11:23:25;;;;;;;5.17;2.23;;;14.00;1.00;;;;;;5564449;25;20450;-59
2024/04/09 11:25:55;;;;;;;7.10;3.20;;;14.20;1.00;;;;;;5564597;25;20391;-59
2024/04/09 11:28:22;;;;;;;4.87;3.33;;;14.50;1.00;;;;;;5564288;25;20749;-58
2024/04/09 11:30:55;;;;;;;5.13;3.00;;;14.40;99.90;;;;;;5565235;25;20461;-58
2024/04/09 11:33:26;;;;;;;9.83;4.17;;;14.10;99.90;;;;;;5565541;25;20449;-58
2024/04/09 11:35:57;;;;;;;8.17;3.13;;;14.20;99.90;;;;;;5562327;25;20922;-58
2024/04/09 11:38:24;;;;;;;6.60;3.30;;;14.20;99.90;;;;;;5527989;25;20514;-60
2024/04/09 11:40:53;;;;;;;6.53;3.20;;;14.50;99.90;;;;;;5547200;25;20952;-60
2024/04/09 11:43:21;;;;;;;4.40;2.23;;;14.70;99.90;;;;;;5563987;25;20521;-60
2024/04/09 11:45:52;;;;;;;7.37;3.00;;;14.90;99.90;;;;;;5561241;25;20395;-60
2024/04/09 11:48:19;;;;;;;5.30;2.40;;;14.80;99.90;;;;;;5561662;25;21098;-61
2024/04/09 11:50:51;;;;;;;2.67;2.10;;;14.70;99.90;;;;;;5566825;25;20461;-60
2024/04/09 11:53:18;;;;;;;2.77;1.90;;;14.90;99.90;;;;;;5568905;25;20453;-65
2024/04/09 11:55:47;;;;;;;4.20;2.33;;;15.10;99.90;;;;;;5569031;25;20457;-61
2024/04/09 11:58:13;;;;;;;5.70;2.63;;;15.20;99.90;;;;;;5569633;25;20449;-62
2024/04/09 12:00:43;;;;;;;5.70;2.13;;;15.20;99.90;;;;;;5569570;25;20394;-60
2024/04/09 12:03:10;;;;;;;3.77;1.97;;;15.30;99.90;;;;;;5568265;25;20449;-61
2024/04/09 12:05:39;;;;;;;3.90;2.00;;;15.30;99.90;;;;;;5566545;25;20566;-61
2024/04/09 12:08:09;;;;;;;6.40;2.30;;;15.50;99.90;;;;;;5566321;25;20441;-61
2024/04/09 12:10:38;;;;;;;4.20;2.10;;;15.80;99.90;;;;;;5566188;25;21054;-60
2024/04/09 12:13:05;;;;;;;6.50;2.67;;;15.90;99.90;;;;;;5567418;25;20449;-61
2024/04/09 12:15:34;;;;;;;3.87;2.30;;;16.20;99.90;;;;;;5567938;25;20759;-61
2024/04/09 12:18:01;;;;;;;4.53;1.97;;;16.30;99.90;;;;;;5568319;25;20464;-60
2024/04/09 12:20:30;;;;;;;4.40;2.20;;;16.40;99.90;;;;;;5568537;25;20402;-60
2024/04/09 12:22:56;;;;;;;6.27;2.63;;;16.20;93.00;;;;;;5569145;25;20486;-61
2024/04/09 12:25:28;;;;;;;3.03;1.80;;;16.10;99.90;;;;;;5569197;25;20485;-60
2024/04/09 12:27:55;;;;;;;3.10;1.90;;;16.40;23.70;;;;;;5569052;25;20449;-59
2024/04/09 12:30:24;;;;;;;5.90;1.80;;;16.40;1.00;;;;;;5568662;25;20444;-58
2024/04/09 12:32:51;;;;;;;4.10;1.70;;;16.90;99.90;;;;;;5567217;25;20524;-58
2024/04/09 12:35:21;;;;;;;4.07;2.30;;;17.20;75.50;;;;;;5568412;25;20610;-59
2024/04/09 12:37:48;;;;;;;5.27;2.00;;;17.00;30.40;;;;;;5564213;25;20457;-58
2024/04/09 12:40:17;;;;;;;3.93;2.20;;;16.70;1.00;;;;;;5567743;25;20457;-59
2024/04/09 12:42:49;;;;;;;4.00;2.10;;;16.60;23.60;;;;;;5567287;25;20800;-57
2024/04/09 12:45:18;;;;;;;3.90;2.77;;;16.90;1.00;;;;;;5568603;25;20425;-59
2024/04/09 12:47:45;;;;;;;6.27;2.30;;;17.50;1.00;;;;;;5568521;25;20453;-58
2024/04/09 12:50:14;;;;;;;3.40;2.10;;;17.60;99.90;;;;;;5568757;25;20509;-56
2024/04/09 12:52:41;;;;;;;5.97;2.30;;;17.40;1.00;;;;;;5567980;25;20457;-58
2024/04/09 12:55:10;;;;;;;6.73;2.70;;;16.90;99.90;;;;;;5565277;25;20509;-58